Terminal Aerodrome Forecast
Issued by NWS

Home | Current Version | Previous Version | Text Only | Print | Product List | Glossary Off
Versions: 1 2 3 4 5 6 7 8 9 10 11 12 13

529
FTUS45 KGGW 201720
TAFSDY
TAF
KSDY 201720Z 2018/2118 36005KT P6SM BKN015
     FM202100 VRB05KT P6SM SKC
     FM211200 VRB03KT P6SM FEW016=

USA.gov is the U.S. government's official web portal to all federal, state and local government web resources and services.